Tiempo atmosférico en la estación meteorológica de Medina Sidonia, Cádiz (90 m.)



Fecha
DESCASC
Temp. máxima en grados centígrados (hora)
DESCASC
Temp. mínima en grados centígrados (hora)
DESCASC
Temp. media en grados centígrados
DESCASC
Racha de viento máxima en m/sg (hora)
DESCASC
Velocidad máxima media en intervalos de 10 minutos(hora)
DESCASC
Precipitaciones diarias en mm
DESCASC
Precipitaciones de 00:00 a 06:00 en mm
DESCASC
Precipitaciones de 06:00 a 12:00 en mm
DESCASC
Precipitaciones de 12:00 a 18:00 en mm
DESCASC
Precipitaciones de 18:00 a 24:00 en mm
DESCASC
10-07-2020 34.3 (15:00) 15.3 (07:30) 24.8 8.33 (16:20) 5 (16:10) 0 0 0 0 0
09-07-2020 28.6 (16:30) 16.9 (07:50) 22.8 8.06 (13:20) 4.72 (10:40) 0 0 0 0 0
08-07-2020 35.7 (14:40) 20.4 (23:59) 28.1 10.28 (19:20) 8.33 (18:50) 0 0 0 0 0
07-07-2020 41.3 (17:40) 21.7 (07:10) 31.5 10.83 (11:20) 8.33 (11:20) 0 0 0 0 0
06-07-2020 38.3 (16:50) 19.9 (00:00) 29.1 9.44 (13:10) 6.94 (09:20) 0 0 0 0 0
05-07-2020 31.8 (15:20) 22.3 (00:00) 27 20.28 (13:40) 15.28 (14:00) 0 0 0 0 0
04-07-2020 32 (16:00) 16.9 (00:00) 24.4 15.83 (11:40) 11.67 (12:10) 0 0 0 0 0
03-07-2020 31 (14:10) 17.9 (07:50) 24.4 8.89 (15:50) 6.39 (16:00) 0 0 0 0 0
02-07-2020 32.3 (15:00) 17 (00:00) 24.6 12.22 (16:30) 8.61 (17:30) 0 0 0 0 0
01-07-2020 31.6 (16:30) 19.8 (00:00) 25.7 8.89 (16:30) 6.39 (17:50) 0 0 0 0 0
30-06-2020 32 (14:10) 20.6 (00:00) 26.3 9.72 (18:00) 6.67 (18:10) 0 0 0 0 0
29-06-2020 35.8 (17:10) 20.2 (00:00) 28 12.5 (16:30) 8.89 (18:30) 0 0 0 0 0
28-06-2020 34.9 (16:10) 15.8 (00:00) 25.4 10.28 (17:20) 6.94 (17:20) 0 0 0 0 0
27-06-2020 29.2 (16:40) 14.3 (00:00) 21.8 9.72 (14:10) 6.39 (19:30) 0 0 0 0 0
26-06-2020 27.4 (16:20) 17.5 (00:00) 22.4 9.44 (10:40) 6.94 (18:10) 0 0 0 0 0
25-06-2020 28.1 (14:40) 19.2 (00:00) 23.7 11.67 (16:30) 6.94 (15:50) 0 0 0 0 0
24-06-2020 31.2 (14:30) 21.6 (00:00) 26.4 17.5 (00:10) 12.5 (00:20) 0 0 0 0 0
23-06-2020 31.6 (16:50) 23.6 (00:00) 27.6 20.83 (16:30) 13.61 (16:30) 0 0 0 0 0
22-06-2020 33.5 (16:40) 18.2 (00:00) 25.9 21.67 (15:50) 15.28 (13:50) 0 0 0 0 0
21-06-2020 37.1 (17:00) 14.3 (00:00) 25.7 11.11 (18:30) 8.61 (18:20) 0 0 0 0 0
20-06-2020 33.5 (15:40) 12.9 (00:00) 23.2 9.72 (18:00) 7.22 (18:00) 0 0 0 0 0
19-06-2020 25.7 (16:20) 14.9 (00:00) 20.3 8.89 (16:50) 5.83 (16:50) 0 0 0 0 0
18-06-2020 27.8 (13:40) 12.8 (00:00) 20.3 11.39 (16:50) 7.78 (17:10) 0 0 0 0 0
17-06-2020 27.4 (14:40) 14.4 (00:00) 20.9 10 (19:30) 7.5 (20:20) 0 0 0 0 0
16-06-2020 25.4 (16:20) 14.5 (00:00) 19.9 12.78 (18:00) 8.89 (18:00) 0 0 0 0 0
15-06-2020 25.9 (17:00) 10.7 (00:00) 18.3 10.28 (20:40) 7.78 (20:40) 0 0 0 0 0

Gráficas

Temp. máximas Temp. mínimas Temp. medias Precipitaciones Rachas de viento máximas Velocidades máximas media en intervalos de 10 minutos

Datos horarios

Fecha y hora oficial Temperatura (ºC) Velocidad del viento (km/h) Dirección del viento Racha (km/h) Dirección de racha Precipitación (mm) Presión (hPa) Tendencia (hPa) Humedad (%)
2020-07-14 23:00:00 24.6 30 Sudeste 51 Este 0 -- -- 62
2020-07-14 22:00:00 25.2 35 Sudeste 51 Este 0 -- -- 62
2020-07-14 21:00:00 26.9 35 Sudeste 50 Sudeste 0 -- -- 52
2020-07-14 20:00:00 29.7 35 Este 46 Este 0 -- -- 43
2020-07-14 19:00:00 31.3 30 Sudeste 44 Este 0 -- -- 38
2020-07-14 18:00:00 32.7 32 Sudeste 44 Este 0 -- -- 33
2020-07-14 17:00:00 33.5 31 Este 46 Este 0 -- -- 31
2020-07-14 16:00:00 33.7 34 Este 46 Sudeste 0 -- -- 30
2020-07-14 15:00:00 33.2 34 Este 48 Este 0 -- -- 34
2020-07-14 14:00:00 33.1 32 Este 45 Este 0 -- -- 32
2020-07-14 13:00:00 32.6 30 Sudeste 41 Sudeste 0 -- -- 33
2020-07-14 12:00:00 31.5 31 Sudeste 44 Sudeste 0 -- -- 36
2020-07-14 11:00:00 30.1 31 Sudeste 47 Este 0 -- -- 36
2020-07-14 10:00:00 28.2 32 Sudeste 42 Sudeste 0 -- -- 38
2020-07-14 09:00:00 26.6 19 Sudeste 30 Sudeste 0 -- -- 43
2020-07-14 08:00:00 24.9 17 Sudeste 24 Sudeste 0 -- -- 46
2020-07-14 07:00:00 24.8 16 Sudeste 32 Sudeste 0 -- -- 46
2020-07-14 06:00:00 24.2 13 Sudeste 26 Sudeste 0 -- -- 50
2020-07-14 05:00:00 24.3 15 Sudeste 28 Sudeste 0 -- -- 53
2020-07-14 04:00:00 23.8 11 Sudeste 22 Este 0 -- -- 55
2020-07-14 03:00:00 23.9 12 Sudeste 27 Sudeste 0 -- -- 57
2020-07-14 02:00:00 24.3 19 Sudeste 28 Sudeste 0 -- -- 58
2020-07-14 01:00:00 24.4 18 Sudeste 37 Este 0 -- -- 60
2020-07-14 00:00:00 24.4 20 Este 36 Sudeste 0 -- -- 62
2020-07-13 23:00:00 25 23 Sudeste 37 Sudeste 0 -- -- 57
2020-07-13 22:00:00 26.1 23 Sudeste 37 Sudeste 0 -- -- 51
2020-07-13 21:00:00 28.7 22 Sudeste 38 Sudeste 0 -- -- 42
2020-07-13 20:00:00 31.1 28 Este 37 Este 0 -- -- 35
2020-07-13 19:00:00 33.4 22 Este 31 Sudeste 0 -- -- 31
2020-07-13 18:00:00 35.1 15 Sudeste 24 Sudeste 0 -- -- 30
2020-07-13 17:00:00 34.5 12 Sudoeste 24 Noroeste 0 -- -- 40
2020-07-13 16:00:00 35.5 11 Este 21 Sudeste 0 -- -- 29
2020-07-13 15:00:00 34.4 8 Sudeste 25 Este 0 -- -- 30
2020-07-13 14:00:00 33.7 17 Sudeste 37 Este 0 -- -- 31
2020-07-13 13:00:00 32.3 21 Este 37 Este 0 -- -- 35
2020-07-13 12:00:00 31 25 Este 39 Este 0 -- -- 39
2020-07-13 11:00:00 29.3 27 Sudeste 40 Este 0 -- -- 44
2020-07-13 10:00:00 27.3 31 Sudeste 40 Sudeste 0 -- -- 52
2020-07-13 09:00:00 25.4 24 Sudeste 38 Sudeste 0 -- -- 61
2020-07-13 08:00:00 23.8 27 Sudeste 40 Este 0 -- -- 67
2020-07-13 07:00:00 23.2 20 Sudeste 37 Sudeste 0 -- -- 69
2020-07-13 06:00:00 23.4 21 Sudeste 39 Sudeste 0 -- -- 67
2020-07-13 05:00:00 23.4 25 Sudeste 37 Este 0 -- -- 70
2020-07-13 04:00:00 23.6 31 Sudeste 45 Este 0 -- -- 75
2020-07-13 03:00:00 23.7 30 Sudeste 47 Sudeste 0 -- -- 77
2020-07-13 02:00:00 23.7 28 Sudeste 49 Sudeste 0 -- -- 78
2020-07-13 01:00:00 23.5 25 Sudeste 33 Este 0 -- -- 78
2020-07-13 00:00:00 23.7 23 Sudeste 35 Sudeste 0 -- -- 77
2020-07-12 23:00:00 24.3 18 Sudeste 32 Sudeste 0 -- -- 74
2020-07-12 22:00:00 25.8 20 Sudeste 33 Este 0 -- -- 67
2020-07-12 21:00:00 28 25 Sudeste 37 Sudeste 0 -- -- 58
2020-07-12 20:00:00 30.5 28 Este 41 Este 0 -- -- 49
2020-07-12 19:00:00 32.3 28 Este 44 Este 0 -- -- 42
2020-07-12 18:00:00 32.7 31 Este 46 Este 0 -- -- 41
2020-07-12 17:00:00 32.7 33 Este 50 Este 0 -- -- 43
2020-07-12 16:00:00 32.2 34 Este 53 Este 0 -- -- 46
2020-07-12 15:00:00 31.7 41 Este 59 Este 0 -- -- 47
2020-07-12 14:00:00 31.8 39 Este 57 Sudeste 0 -- -- 45
2020-07-12 13:00:00 30.2 41 Este 65 Sudeste 0 -- -- 50
2020-07-12 12:00:00 29.3 47 Este 72 Este 0 -- -- 52
2020-07-12 11:00:00 28.2 46 Este 65 Este 0 -- -- 55
2020-07-12 10:00:00 27.1 45 Este 61 Este 0 -- -- 57
2020-07-12 09:00:00 26.1 29 Este 48 Este 0 -- -- 58
2020-07-12 08:00:00 24.8 20 Este 53 Sudeste 0 -- -- 63
2020-07-12 07:00:00 24.8 37 Sudeste 57 Sudeste 0 -- -- 64
2020-07-12 06:00:00 25.2 28 Este 65 Este 0 -- -- 62
2020-07-12 05:00:00 25.1 51 Sudeste 73 Sudeste 0 -- -- 64
2020-07-12 04:00:00 25.3 32 Este 75 Este 0 -- -- 62
2020-07-12 03:00:00 25.3 49 Este 77 Este 0 -- -- 65
2020-07-12 02:00:00 26.1 56 Este 88 Este 0 -- -- 57
2020-07-12 01:00:00 26.3 41 Sudeste 82 Este 0 -- -- 54
2020-07-12 00:00:00 26.7 48 Este 76 Este 0 -- -- 50
2020-07-11 23:00:00 26.1 44 Sudeste 74 Este 0 -- -- 57
2020-07-11 22:00:00 25.8 46 Este 68 Este 0 -- -- 60
2020-07-11 21:00:00 26.9 46 Este 68 Este 0 -- -- 54
2020-07-11 20:00:00 27.7 50 Este 75 Este 0 -- -- 51
2020-07-11 19:00:00 29.2 53 Este 81 Este 0 -- -- 48
2020-07-11 18:00:00 29.6 51 Este 73 Este 0 -- -- 49
2020-07-11 17:00:00 30.9 46 Este 75 Este 0 -- -- 47
2020-07-11 16:00:00 30.6 53 Este 77 Este 0 -- -- 47
2020-07-11 15:00:00 30.3 53 Este 75 Este 0 -- -- 47
2020-07-11 14:00:00 29.7 53 Este 77 Este 0 -- -- 51
2020-07-11 13:00:00 29.4 44 Este 70 Este 0 -- -- 54
2020-07-11 12:00:00 27.9 46 Sudeste 65 Este 0 -- -- 58
2020-07-11 11:00:00 27 42 Este 63 Sudeste 0 -- -- 60
2020-07-11 10:00:00 26.4 37 Este 52 Sudeste 0 -- -- 58
2020-07-11 09:00:00 25.4 31 Este 44 Sudeste 0 -- -- 56
2020-07-11 08:00:00 23.4 21 Este 32 Este 0 -- -- 60
2020-07-11 07:00:00 22.4 23 Sudeste 31 Este 0 -- -- 65
2020-07-11 06:00:00 22.5 23 Este 36 Este 0 -- -- 67
2020-07-11 05:00:00 22.8 18 Este 38 Este 0 -- -- 64
2020-07-11 04:00:00 22.8 15 Sudeste 22 Este 0 -- -- 62
2020-07-11 03:00:00 22.7 4 Sudeste 14 Sudeste 0 -- -- 63
2020-07-11 02:00:00 23.3 8 Sudeste 15 Sudeste 0 -- -- 60
2020-07-11 01:00:00 23.9 13 Sudeste 19 Sudeste 0 -- -- 58
2020-07-11 00:00:00 24.2 4 Sudeste 13 Sudeste 0 -- -- 54
2020-07-10 23:00:00 25.7 6 Sudeste 13 Este 0 -- -- 48
2020-07-10 22:00:00 28 5 Sudeste 13 Oeste 0 -- -- 45
2020-07-10 21:00:00 30.7 12 Oeste 20 Oeste 0 -- -- 41
2020-07-10 20:00:00 32.6 10 Oeste 20 Oeste 0 -- -- 40
2020-07-10 19:00:00 33.5 14 Oeste 22 Oeste 0 -- -- 40
2020-07-10 18:00:00 33.1 16 Oeste 28 Noroeste 0 -- -- 42
2020-07-10 17:00:00 33.1 15 Noroeste 30 Noroeste 0 -- -- 43
2020-07-10 16:00:00 33.4 15 Oeste 29 Sudoeste 0 -- -- 42
2020-07-10 15:00:00 34.3 6 Sur 18 Norte 0 -- -- 35
2020-07-10 14:00:00 32.5 8 Sudoeste 15 Este 0 -- -- 35
2020-07-10 13:00:00 30.5 6 Sudeste 18 Este 0 -- -- 41
2020-07-10 12:00:00 28.2 4 Este 14 Este 0 -- -- 47
2020-07-10 11:00:00 25.6 8 Este 15 Este 0 -- -- 57
2020-07-10 10:00:00 22.7 5 Sudeste 9 Este 0 -- -- 72
2020-07-10 09:00:00 19.3 4 Este 6 Este 0 -- -- 81
2020-07-10 08:00:00 15.9 2 Sudoeste 8 Nordeste 0 -- -- 89
2020-07-10 07:00:00 15.9 3 Este 5 Este 0 -- -- 84
2020-07-10 06:00:00 16.2 0 Calma 3 Sur 0 -- -- 88
2020-07-10 05:00:00 16.4 3 Este 5 Este 0 -- -- 88
2020-07-10 04:00:00 16.4 2 Noroeste 8 Nordeste 0 -- -- 85
2020-07-10 03:00:00 17.4 3 Sudeste 6 Sur 0 -- -- 85
2020-07-10 02:00:00 18.4 2 Este 9 Oeste 0 -- -- 79
2020-07-10 01:00:00 18.9 3 Oeste 9 Sudoeste 0 -- -- 81
2020-07-10 00:00:00 19.5 7 Oeste 11 Oeste 0 -- -- 75
2020-07-09 23:00:00 20.4 3 Oeste 13 Sudoeste 0 -- -- 70
2020-07-09 22:00:00 21.7 9 Oeste 13 Oeste 0 -- -- 64
2020-07-09 21:00:00 24.6 10 Oeste 19 Oeste 0 -- -- 56
2020-07-09 20:00:00 26.3 13 Oeste 23 Sudoeste 0 -- -- 50
2020-07-09 19:00:00 28 13 Sudoeste 25 Oeste 0 -- -- 44
2020-07-09 18:00:00 28.4 11 Sudoeste 25 Oeste 0 -- -- 40
2020-07-09 17:00:00 28.5 12 Sur 27 Oeste 0 -- -- 42
2020-07-09 16:00:00 27.5 11 Sur 26 Sur 0 -- -- 44
2020-07-09 15:00:00 27.1 15 Sudoeste 24 Sudoeste 0 -- -- 46
2020-07-09 14:00:00 26.4 15 Sudoeste 29 Sudoeste 0 -- -- 50
2020-07-09 13:00:00 25.2 14 Sudoeste 28 Oeste 0 -- -- 52
2020-07-09 12:00:00 23.9 15 Sudoeste 28 Sudoeste 0 -- -- 57
2020-07-09 11:00:00 23.1 15 Oeste 27 Sudoeste 0 -- -- 61
2020-07-09 10:00:00 22.3 12 Sur 22 Sudeste 0 -- -- 66
2020-07-09 09:00:00 19.8 6 Sudeste 10 Sudeste 0 -- -- 80
2020-07-09 08:00:00 17 0 Calma 5 Sudeste 0 -- -- 87
2020-07-09 07:00:00 17.2 2 Sudeste 9 Sudeste 0 -- -- 88
2020-07-09 06:00:00 17.8 5 Sudeste 9 Sudeste 0 -- -- 86
2020-07-09 05:00:00 18 4 Este 9 Sur 0 -- -- 86
2020-07-09 04:00:00 19.4 4 Sur 16 Sur 0 -- -- 83
2020-07-09 03:00:00 19.9 6 Sur 16 Sur 0 -- -- 83
2020-07-09 02:00:00 19.3 7 Sur 13 Sudeste 0 -- -- 88
2020-07-09 01:00:00 19.2 7 Este 10 Sudeste 0 -- -- 83
2020-07-09 00:00:00 20.4 3 Sudeste 10 Sur 0 -- -- 80
2020-07-08 23:00:00 21.4 5 Sudoeste 22 Oeste 0 -- -- 77
2020-07-08 22:00:00 22.8 17 Oeste 27 Oeste 0 -- -- 70
2020-07-08 21:00:00 25.5 22 Sudoeste 33 Sudoeste 0 -- -- 55
2020-07-08 20:00:00 27.4 22 Oeste 37 Oeste 0 -- -- 50
2020-07-08 19:00:00 28.7 29 Oeste 37 Oeste 0 -- -- 44
2020-07-08 18:00:00 31.8 24 Oeste 33 Oeste 0 -- -- 32
2020-07-08 17:00:00 32.1 21 Oeste 37 Oeste 0 -- -- 31
2020-07-08 16:00:00 32.1 27 Oeste 36 Oeste 0 -- -- 38
2020-07-08 15:00:00 35.7 12 Sudeste 31 Sudeste 0 -- -- 25
2020-07-08 14:00:00 35.1 15 Sudeste 27 Este 0 -- -- 25
2020-07-08 13:00:00 33.9 15 Este 26 Nordeste 0 -- -- 25
2020-07-08 12:00:00 32.7 18 Este 31 Sudeste 0 -- -- 24
2020-07-08 11:00:00 30.7 20 Este 32 Este 0 -- -- 24
2020-07-08 10:00:00 29.4 21 Sudeste 30 Este 0 -- -- 22
2020-07-08 09:00:00 27.4 9 Sudeste 19 Sudeste 0 -- -- 25
2020-07-08 08:00:00 25.7 10 Sudeste 21 Sudeste 0 -- -- 27
2020-07-08 07:00:00 25.3 11 Sur 20 Este 0 -- -- 24
2020-07-08 06:00:00 25.7 12 Sudeste 21 Este 0 -- -- 22
2020-07-08 05:00:00 24.9 5 Sudeste 17 Este 0 -- -- 26
2020-07-08 04:00:00 24.6 2 Noroeste 9 Oeste 0 -- -- 32
2020-07-08 03:00:00 25.5 6 Oeste 9 Oeste 0 -- -- 32
2020-07-08 02:00:00 26.6 0 Calma 4 Este 0 -- -- 33
2020-07-08 01:00:00 26.9 2 Oeste 4 Noroeste 0 -- -- 35
2020-07-08 00:00:00 28 2 Oeste 4 Sur 0 -- -- 33
2020-07-07 23:00:00 28.9 0 Calma 5 Oeste 0 -- -- 31
2020-07-07 22:00:00 32.7 0 Calma 10 Sudeste 0 -- -- 26
2020-07-07 21:00:00 35.4 9 Sudeste 21 Este 0 -- -- 24
2020-07-07 20:00:00 38.9 15 Este 21 Este 0 -- -- 20
2020-07-07 19:00:00 40.5 13 Sudeste 24 Sudeste 0 -- -- 16
2020-07-07 18:00:00 41 18 Este 26 Sudeste 0 -- -- 15
2020-07-07 17:00:00 41 11 Sudeste 23 Sudeste 0 -- -- 14
2020-07-07 16:00:00 40.4 14 Sudeste 26 Sudeste 0 -- -- 15
2020-07-07 15:00:00 39.5 11 Sudeste 22 Sudeste 0 -- -- 19
2020-07-07 14:00:00 38.3 13 Sudeste 28 Sudeste 0 -- -- 20
2020-07-07 13:00:00 37 17 Sudeste 30 Este 0 -- -- 20
2020-07-07 12:00:00 34.7 26 Este 39 Este 0 -- -- 22
2020-07-07 11:00:00 32.4 28 Este 38 Este 0 -- -- 21
2020-07-07 10:00:00 30.5 21 Este 29 Este 0 -- -- 24
2020-07-07 09:00:00 27.1 9 Sudeste 18 Sudeste 0 -- -- 29
2020-07-07 08:00:00 22.6 0 Calma 6 Noroeste 0 -- -- 37
2020-07-07 07:00:00 22.1 3 Oeste 6 Sudeste 0 -- -- 38
2020-07-07 06:00:00 22.9 3 Oeste 8 Este 0 -- -- 34
2020-07-07 05:00:00 23.3 2 Sur 6 Sudeste 0 -- -- 31
2020-07-07 04:00:00 22.2 3 Sur 8 Sudeste 0 -- -- 32
2020-07-07 03:00:00 22.5 2 Sudoeste 8 Nordeste 0 -- -- 33
2020-07-07 02:00:00 24.3 3 Nordeste 11 Este 0 -- -- 29
2020-07-07 01:00:00 24.8 4 Sudeste 8 Sudeste 0 -- -- 28
2020-07-07 00:00:00 24.9 4 Oeste 8 Este 0 -- -- 30
2020-07-06 23:00:00 26.2 3 Este 9 Sudeste 0 -- -- 29
2020-07-06 22:00:00 28.9 6 Este 17 Sudeste 0 -- -- 26
2020-07-06 21:00:00 33.1 4 Oeste 17 Noroeste 0 -- -- 27
2020-07-06 20:00:00 34.6 14 Oeste 22 Oeste 0 -- -- 29
2020-07-06 19:00:00 37.3 10 Sur 23 Sudeste 0 -- -- 19
2020-07-06 18:00:00 37.6 15 Sudeste 28 Sudeste 0 -- -- 20
2020-07-06 17:00:00 38.2 17 Sudeste 27 Este 0 -- -- 21
2020-07-06 16:00:00 38 15 Sudeste 30 Sudeste 0 -- -- 22
2020-07-06 15:00:00 37.7 16 Sudeste 33 Este 0 -- -- 21
2020-07-06 14:00:00 36.5 18 Sudeste 34 Este 0 -- -- 22
2020-07-06 13:00:00 34.7 22 Sudeste 32 Este 0 -- -- 24
2020-07-06 12:00:00 32.8 16 Sudeste 25 Sudeste 0 -- -- 28
2020-07-06 11:00:00 30.5 18 Sudeste 29 Sudeste 0 -- -- 31
2020-07-06 10:00:00 28.4 20 Este 34 Sudeste 0 -- -- 32
2020-07-06 09:00:00 26 19 Sudeste 27 Sudeste 0 -- -- 37
2020-07-06 08:00:00 23.1 12 Sudeste 24 Sudeste 0 -- -- 47
2020-07-06 07:00:00 20.2 2 Sudeste 13 Este 0 -- -- 57
2020-07-06 06:00:00 20.1 4 Oeste 6 Oeste 0 -- -- 58
2020-07-06 05:00:00 20.3 3 Oeste 5 Oeste 0 -- -- 58
2020-07-06 04:00:00 21.5 0 Calma 17 Este 0 -- -- 54
2020-07-06 03:00:00 23.4 14 Este 22 Este 0 -- -- 50
2020-07-06 02:00:00 23.9 16 Sudeste 24 Sudeste 0 -- -- 50
2020-07-06 01:00:00 23.8 17 Sudeste 24 Sudeste 0 -- -- 47
2020-07-06 00:00:00 23.8 13 Sudeste 31 Sudeste 0 -- -- 54
2020-07-05 23:00:00 24.4 22 Sudeste 38 Sudeste 0 -- -- 54
2020-07-05 22:00:00 25.8 31 Este 46 Este 0 -- -- 49
2020-07-05 21:00:00 27.7 31 Este 52 Este 0 -- -- 44
2020-07-05 20:00:00 29.5 36 Este 55 Este 0 -- -- 42
2020-07-05 19:00:00 30.5 41 Este 55 Este 0 -- -- 40
2020-07-05 18:00:00 31.5 39 Este 63 Este 0 -- -- 38
2020-07-05 17:00:00 31.4 48 Este 66 Sudeste 0 -- -- 37
2020-07-05 16:00:00 31.8 46 Este 70 Este 0 -- -- 35
2020-07-05 15:00:00 31.5 52 Este 70 Este 0 -- -- 37
2020-07-05 14:00:00 30.9 55 Este 73 Este 0 -- -- 37
2020-07-05 13:00:00 30.8 45 Este 66 Este 0 -- -- 38
2020-07-05 12:00:00 29.8 41 Este 64 Este 0 -- -- 43
2020-07-05 11:00:00 28 40 Este 57 Este 0 -- -- 49
2020-07-05 10:00:00 26.6 33 Este 51 Sudeste 0 -- -- 55
2020-07-05 09:00:00 25.1 22 Sudeste 31 Sudeste 0 -- -- 59
2020-07-05 08:00:00 23.3 19 Sudeste 31 Sudeste 0 -- -- 63
2020-07-05 07:00:00 22.6 17 Este 37 Sudeste 0 -- -- 66
2020-07-05 06:00:00 22.5 22 Sudeste 32 Sudeste 0 -- -- 69
2020-07-05 05:00:00 22.8 19 Este 37 Este 0 -- -- 64
2020-07-05 04:00:00 23.2 24 Este 36 Este 0 -- -- 64
2020-07-05 03:00:00 22.9 19 Este 32 Este 0 -- -- 69
2020-07-05 02:00:00 22.3 13 Este 25 Este 0 -- -- 74
2020-07-05 01:00:00 22.6 15 Sudeste 24 Este 0 -- -- 75
2020-07-05 00:00:00 22.7 16 Este 28 Este 0 -- -- 74
2020-07-04 23:00:00 23.7 22 Este 44 Sudeste 0 -- -- 71
2020-07-04 22:00:00 24.9 23 Sudeste 41 Este 0 -- -- 66
2020-07-04 21:00:00 26.8 33 Sudeste 46 Sudeste 0 -- -- 58
2020-07-04 20:00:00 28.7 36 Sudeste 51 Sudeste 0 -- -- 50
2020-07-04 19:00:00 30.1 32 Sudeste 48 Este 0 -- -- 47
2020-07-04 18:00:00 31.2 35 Este 49 Sudeste 0 -- -- 43
2020-07-04 17:00:00 31.3 37 Sudeste 50 Sudeste 0 -- -- 44
2020-07-04 16:00:00 32 31 Sudeste 48 Este 0 -- -- 44
2020-07-04 15:00:00 31.2 32 Este 48 Este 0 -- -- 45
2020-07-04 14:00:00 30.4 35 Este 49 Este 0 -- -- 48
2020-07-04 13:00:00 28.8 37 Este 56 Este 0 -- -- 53
2020-07-04 12:00:00 28.1 36 Este 57 Este 0 -- -- 57
2020-07-04 11:00:00 26.9 34 Este 53 Sudeste 0 -- -- 61
2020-07-04 10:00:00 25.5 33 Sudeste 46 Sudeste 0 -- -- 67
2020-07-04 09:00:00 24.2 28 Este 41 Sudeste 0 -- -- 74
2020-07-04 08:00:00 22.2 22 Sudeste 38 Este 0 -- -- 82
2020-07-04 07:00:00 20.6 5 Sudeste 12 Sudeste 0 -- -- 83
2020-07-04 06:00:00 19.5 5 Sudeste 9 Sudeste 0 -- -- 80
2020-07-04 05:00:00 17.4 0 Calma 5 Oeste 0 -- -- 76
2020-07-04 04:00:00 16.9 4 Oeste 6 Oeste 0 -- -- 73
2020-07-04 03:00:00 17.6 0 Calma 5 Noroeste 0 -- -- 71
2020-07-04 02:00:00 18 3 Noroeste 5 Oeste 0 -- -- 68
2020-07-04 01:00:00 18.9 3 Noroeste 10 Oeste 0 -- -- 70
2020-07-04 00:00:00 20.1 6 Oeste 14 Oeste 0 -- -- 69
2020-07-03 23:00:00 21.4 6 Oeste 17 Oeste 0 -- -- 61
2020-07-03 22:00:00 23.1 8 Oeste 15 Oeste 0 -- -- 53
2020-07-03 21:00:00 26.2 10 Noroeste 17 Oeste 0 -- -- 45
2020-07-03 20:00:00 28 13 Oeste 24 Oeste 0 -- -- 35
2020-07-03 19:00:00 29.2 16 Oeste 25 Oeste 0 -- -- 29
2020-07-03 18:00:00 29.3 18 Oeste 29 Oeste 0 -- -- 27
2020-07-03 17:00:00 30.2 21 Oeste 30 Oeste 0 -- -- 26
2020-07-03 16:00:00 30.5 23 Oeste 32 Oeste 0 -- -- 21
2020-07-03 15:00:00 30.7 18 Oeste 30 Oeste 0 -- -- 26
2020-07-03 14:00:00 30.9 17 Oeste 28 Noroeste 0 -- -- 23
2020-07-03 13:00:00 29.8 16 Oeste 25 Sudoeste 0 -- -- 24
2020-07-03 12:00:00 27.9 7 Oeste 17 Oeste 0 -- -- 34
2020-07-03 11:00:00 25.1 7 Noroeste 15 Noroeste 0 -- -- 42
2020-07-03 10:00:00 22.1 7 Noroeste 13 Oeste 0 -- -- 54
2020-07-03 09:00:00 18.8 0 Calma 4 Noroeste 0 -- -- 95
2020-07-03 08:00:00 17.9 2 Oeste 4 Oeste 0 -- -- 95
2020-07-03 07:00:00 18.2 3 Oeste 6 Oeste 0 -- -- 95
2020-07-03 06:00:00 18.9 3 Oeste 4 Oeste 0 -- -- 94
2020-07-03 05:00:00 19.1 2 Noroeste 4 Noroeste 0 -- -- 92
2020-07-03 04:00:00 18.3 2 Oeste 4 Este 0 -- -- 90
2020-07-03 03:00:00 19.1 4 Este 9 Este 0 -- -- 90
2020-07-03 02:00:00 20.3 3 Sudeste 10 Sur 0 -- -- 87
2020-07-03 01:00:00 20.9 6 Sur 17 Sur 0 -- -- 82
2020-07-03 00:00:00 21.6 6 Sur 15 Sur 0 -- -- 72
2020-07-02 23:00:00 22.4 7 Sur 23 Oeste 0 -- -- 67
2020-07-02 22:00:00 23.9 18 Oeste 36 Oeste 0 -- -- 60
2020-07-02 21:00:00 25.8 27 Oeste 41 Oeste 0 -- -- 53
2020-07-02 20:00:00 27.5 30 Oeste 40 Oeste 0 -- -- 49
2020-07-02 19:00:00 29.5 28 Oeste 40 Oeste 0 -- -- 41
2020-07-02 18:00:00 31.3 28 Oeste 42 Noroeste 0 -- -- 32
2020-07-02 17:00:00 31.7 27 Oeste 44 Oeste 0 -- -- 32
2020-07-02 16:00:00 32 28 Oeste 42 Oeste 0 -- -- 28
2020-07-02 15:00:00 32.3 25 Oeste 37 Oeste 0 -- -- 33
2020-07-02 14:00:00 31.5 16 Oeste 30 Oeste 0 -- -- 42
2020-07-02 13:00:00 29.8 6 Oeste 22 Oeste 0 -- -- 50
2020-07-02 12:00:00 28 14 Sudeste 24 Sudeste 0 -- -- 59
2020-07-02 11:00:00 26 10 Sudeste 16 Sudeste 0 -- -- 67
2020-07-02 10:00:00 23.2 6 Sur 15 Sudoeste 0 -- -- 79
2020-07-02 09:00:00 21.2 7 Sudoeste 13 Sudoeste 0 -- -- 87
2020-07-02 08:00:00 19.5 3 Este 6 Este 0 -- -- 92
2020-07-02 07:00:00 18.4 3 Nordeste 8 Este 0 -- -- 94
2020-07-02 06:00:00 18 3 Este 9 Este 0 -- -- 94
2020-07-02 05:00:00 17 0 Calma 3 Oeste 0 -- -- 86
2020-07-02 04:00:00 17.5 3 Oeste 5 Este 0 -- -- 91
2020-07-02 03:00:00 18.1 2 Sudeste 6 Nordeste 0 -- -- 88
2020-07-02 02:00:00 19 3 Este 5 Nordeste 0 -- -- 88
2020-07-02 01:00:00 20.1 0 Calma 6 Sudoeste 0 -- -- 87
2020-07-02 00:00:00 20.9 3 Oeste 18 Oeste 0 -- -- 83
2020-07-01 23:00:00 21.7 8 Oeste 17 Oeste 0 -- -- 76
2020-07-01 22:00:00 23.7 3 Sudoeste 18 Oeste 0 -- -- 65
2020-07-01 21:00:00 26.8 15 Oeste 21 Oeste 0 -- -- 49
2020-07-01 20:00:00 29.9 14 Oeste 20 Oeste 0 -- -- 31
2020-07-01 19:00:00 31.1 14 Oeste 28 Oeste 0 -- -- 28
2020-07-01 18:00:00 31.4 21 Oeste 30 Oeste 0 -- -- 30
2020-07-01 17:00:00 31.5 19 Oeste 32 Oeste 0 -- -- 30
2020-07-01 16:00:00 31.5 19 Oeste 28 Oeste 0 -- -- 30
2020-07-01 15:00:00 31 12 Sudoeste 22 Oeste 0 -- -- 36
2020-07-01 14:00:00 29.1 10 Oeste 21 Oeste 0 -- -- 43
2020-07-01 13:00:00 27.1 9 Oeste 20 Sudoeste 0 -- -- 51
2020-07-01 12:00:00 24.8 10 Sudoeste 22 Oeste 0 -- -- 61
2020-07-01 11:00:00 23.7 10 Sudoeste 21 Sur 0 -- -- 66
2020-07-01 10:00:00 22.3 8 Sur 16 Sur 0 -- -- 73
2020-07-01 09:00:00 20.5 5 Sur 12 Sur 0 -- -- 83
2020-07-01 08:00:00 20 6 Sudoeste 14 Sudoeste 0 -- -- 85
2020-07-01 07:00:00 19.8 8 Sur 15 Sur 0 -- -- 87
2020-07-01 06:00:00 19.9 9 Sur 15 Sudeste 0 -- -- 88
2020-07-01 05:00:00 20.2 7 Sudeste 13 Sudeste 0 -- -- 88
2020-07-01 04:00:00 20.2 5 Sur 10 Sudeste 0 -- -- 88
2020-07-01 03:00:00 20.1 4 Sur 7 Sudeste 0 -- -- 88
2020-07-01 02:00:00 20.5 5 Sudeste 11 Sudeste 0 -- -- 86
2020-07-01 01:00:00 20.4 6 Este 15 Sur 0 -- -- 88
2020-07-01 00:00:00 20.6 8 Sudeste 15 Sudeste 0 -- -- 83
2020-06-30 23:00:00 22 2 Nordeste 14 Sudoeste 0 -- -- 74
2020-06-30 22:00:00 24.1 5 Oeste 19 Sudoeste 0 -- -- 64
2020-06-30 21:00:00 27.5 15 Oeste 22 Oeste 0 -- -- 47
2020-06-30 20:00:00 28.9 17 Oeste 27 Oeste 0 -- -- 41
2020-06-30 19:00:00 29.5 17 Sudoeste 35 Oeste 0 -- -- 42
2020-06-30 18:00:00 30.4 19 Sudoeste 35 Sudoeste 0 -- -- 47
2020-06-30 17:00:00 31.7 18 Sudoeste 32 Sur 0 -- -- 41
2020-06-30 16:00:00 31.2 16 Sur 32 Sudoeste 0 -- -- 39
2020-06-30 15:00:00 31.8 14 Sur 29 Sur 0 -- -- 37
2020-06-30 14:00:00 31.9 13 Sur 31 Sur 0 -- -- 39
2020-06-30 13:00:00 30.3 15 Sur 24 Sur 0 -- -- 43
2020-06-30 12:00:00 28.8 12 Sur 23 Sur 0 -- -- 46
2020-06-30 11:00:00 27 14 Sur 23 Sudoeste 0 -- -- 52
2020-06-30 10:00:00 26.7 10 Sur 18 Sur 0 -- -- 45
2020-06-30 09:00:00 24.1 6 Sudeste 10 Sudeste 0 -- -- 58
2020-06-30 08:00:00 21.5 2 Oeste 7 Sur 0 -- -- 61
2020-06-30 07:00:00 21 0 Calma 9 Sudeste 0 -- -- 58
2020-06-30 06:00:00 21.5 4 Este 13 Este 0 -- -- 56
2020-06-30 05:00:00 21.8 8 Este 14 Este 0 -- -- 52
2020-06-30 04:00:00 21.3 2 Nordeste 19 Este 0 -- -- 51
2020-06-30 03:00:00 22.4 13 Este 20 Este 0 -- -- 48
2020-06-30 02:00:00 22.9 10 Este 26 Este 0 -- -- 46
2020-06-30 01:00:00 22.5 9 Este 28 Este 0 -- -- 44
2020-06-30 00:00:00 24.4 21 Este 32 Este 0 -- -- 38
2020-06-29 23:00:00 25.3 26 Este 42 Este 0 -- -- 37
2020-06-29 22:00:00 26.6 31 Este 41 Este 0 -- -- 33
2020-06-29 21:00:00 28.8 30 Sudeste 42 Este 0 -- -- 31
2020-06-29 20:00:00 31.3 28 Sudeste 42 Sudeste 0 -- -- 28
2020-06-29 19:00:00 33.1 31 Este 42 Este 0 -- -- 25
2020-06-29 18:00:00 34.9 28 Este 41 Este 0 -- -- 18
2020-06-29 17:00:00 35.4 28 Este 45 Este 0 -- -- 16
2020-06-29 16:00:00 35.2 31 Sudeste 42 Este 0 -- -- 17
2020-06-29 15:00:00 34.8 29 Sudeste 39 Este 0 -- -- 21
2020-06-29 14:00:00 34.3 27 Este 41 Este 0 -- -- 21
2020-06-29 13:00:00 33.5 26 Este 38 Este 0 -- -- 24
2020-06-29 12:00:00 32 16 Sudeste 26 Sudeste 0 -- -- 30
2020-06-29 11:00:00 30.1 15 Sudeste 24 Este 0 -- -- 33
2020-06-29 10:00:00 28.1 15 Sudeste 25 Sudeste 0 -- -- 37
2020-06-29 09:00:00 24.8 9 Sudeste 15 Sudeste 0 -- -- 50
2020-06-29 08:00:00 20.6 2 Oeste 7 Este 0 -- -- 63
2020-06-29 07:00:00 21.4 5 Sudeste 12 Sur 0 -- -- 59
2020-06-29 06:00:00 21.1 3 Oeste 5 Noroeste 0 -- -- 60
2020-06-29 05:00:00 21.3 2 Oeste 8 Sur 0 -- -- 62
2020-06-29 04:00:00 21 0 Calma 6 Este 0 -- -- 64
2020-06-29 03:00:00 21.4 0 Calma 3 Sudoeste 0 -- -- 62
2020-06-29 02:00:00 22 0 Calma 3 Oeste 0 -- -- 63
2020-06-29 01:00:00 22.7 0 Calma 5 Este 0 -- -- 61
2020-06-29 00:00:00 23.5 2 Oeste 8 Noroeste 0 -- -- 59
2020-06-28 23:00:00 24.8 3 Oeste 10 Sudoeste 0 -- -- 55
2020-06-28 22:00:00 27.4 5 Sudoeste 22 Oeste 0 -- -- 49
2020-06-28 21:00:00 29.9 11 Oeste 25 Noroeste 0 -- -- 42
2020-06-28 20:00:00 30.9 20 Noroeste 28 Noroeste 0 -- -- 43
2020-06-28 19:00:00 33.1 19 Noroeste 28 Oeste 0 -- -- 41
2020-06-28 18:00:00 33.7 17 Oeste 37 Oeste 0 -- -- 41
2020-06-28 17:00:00 34.1 17 Oeste 31 Oeste 0 -- -- 42
2020-06-28 16:00:00 34.8 5 Sudeste 17 Este 0 -- -- 29
2020-06-28 15:00:00 33 7 Este 20 Sudeste 0 -- -- 37
2020-06-28 14:00:00 31.7 11 Sudeste 19 Sur 0 -- -- 46
2020-06-28 13:00:00 29.8 11 Sudeste 18 Sur 0 -- -- 53
2020-06-28 12:00:00 26.9 6 Este 16 Este 0 -- -- 59
2020-06-28 11:00:00 23.9 10 Este 15 Sudeste 0 -- -- 72
2020-06-28 10:00:00 20.8 6 Este 11 Este 0 -- -- 85
2020-06-28 09:00:00 19.1 5 Sudeste 9 Sudeste 0 -- -- 90
2020-06-28 08:00:00 16.2 0 Calma 2 Nordeste 0 -- -- 90
2020-06-28 07:00:00 15.8 3 Oeste 4 Noroeste 0 -- -- 87
2020-06-28 06:00:00 16.4 2 Noroeste 3 Oeste 0 -- -- 87
2020-06-28 05:00:00 17 0 Calma 2 Oeste 0 -- -- 84
2020-06-28 04:00:00 17.3 0 Calma 3 Oeste 0 -- -- 81
2020-06-28 03:00:00 17.9 0 Calma 3 Nordeste 0 -- -- 80
2020-06-28 02:00:00 18.7 0 Calma 5 Oeste 0 -- -- 77
2020-06-28 01:00:00 19.6 4 Oeste 6 Oeste 0 -- -- 77
2020-06-28 00:00:00 20.6 4 Noroeste 13 Noroeste 0 -- -- 74
2020-06-27 23:00:00 21.3 6 Noroeste 22 Oeste 0 -- -- 74
2020-06-27 22:00:00 22.9 11 Noroeste 26 Oeste 0 -- -- 65
2020-06-27 21:00:00 25.4 17 Oeste 30 Oeste 0 -- -- 57
2020-06-27 20:00:00 27.1 19 Oeste 31 Oeste 0 -- -- 50
2020-06-27 19:00:00 28 21 Noroeste 31 Oeste 0 -- -- 45
2020-06-27 18:00:00 28.8 21 Oeste 30 Noroeste 0 -- -- 44
2020-06-27 17:00:00 28.9 21 Oeste 31 Noroeste 0 -- -- 41
2020-06-27 16:00:00 28.5 19 Oeste 30 Oeste 0 -- -- 44
2020-06-27 15:00:00 27.4 18 Oeste 35 Sudoeste 0 -- -- 50
2020-06-27 14:00:00 27.6 20 Oeste 34 Oeste 0 -- -- 50
2020-06-27 13:00:00 26.9 12 Oeste 26 Oeste 0 -- -- 54
2020-06-27 12:00:00 26.4 15 Sudeste 24 Sudeste 0 -- -- 55
2020-06-27 11:00:00 24.3 11 Sur 19 Oeste 0 -- -- 63
2020-06-27 10:00:00 21.6 9 Sudeste 14 Sudeste 0 -- -- 78
2020-06-27 09:00:00 17.6 4 Este 7 Este 0 -- -- 90
2020-06-27 08:00:00 15.9 3 Este 5 Sudeste 0 -- -- 92
2020-06-27 07:00:00 14.9 2 Este 3 Este 0 -- -- 92
2020-06-27 06:00:00 14.4 0 Calma 2 Este 0 -- -- 89
2020-06-27 05:00:00 14.6 0 Calma 3 Noroeste 0 -- -- 88
2020-06-27 04:00:00 14.7 2 Oeste 5 Este 0 -- -- 89
2020-06-27 03:00:00 15.3 0 Calma 2 Noroeste 0 -- -- 89
2020-06-27 02:00:00 15.7 2 Oeste 3 Oeste 0 -- -- 89
2020-06-27 01:00:00 16.4 2 Este 5 Nordeste 0 -- -- 86
2020-06-27 00:00:00 17.5 2 Oeste 4 Sudoeste 0 -- -- 84
2020-06-26 23:00:00 19.1 2 Sudoeste 11 Sudoeste 0 -- -- 81
2020-06-26 22:00:00 20.3 6 Oeste 17 Oeste 0 -- -- 75
2020-06-26 21:00:00 22.7 14 Oeste 27 Oeste 0 -- -- 63
2020-06-26 20:00:00 24.6 17 Oeste 30 Oeste 0 -- -- 52
2020-06-26 19:00:00 26 21 Oeste 34 Oeste 0 -- -- 48
2020-06-26 18:00:00 26.7 24 Oeste 33 Oeste 0 -- -- 49
2020-06-26 17:00:00 27.1 19 Sudoeste 33 Oeste 0 -- -- 52
2020-06-26 16:00:00 27.1 17 Oeste 28 Oeste 0 -- -- 51
2020-06-26 15:00:00 26.5 12 Oeste 30 Sudoeste 0 -- -- 54
2020-06-26 14:00:00 25.6 15 Sudoeste 27 Sur 0 -- -- 56
2020-06-26 13:00:00 24.1 13 Sudoeste 34 Sudoeste 0 -- -- 63
2020-06-26 12:00:00 23 16 Sudoeste 30 Sur 0 -- -- 67
2020-06-26 11:00:00 22.4 17 Sudoeste 34 Sur 0 -- -- 69
2020-06-26 10:00:00 21.8 14 Sudoeste 24 Sudoeste 0 -- -- 72
2020-06-26 09:00:00 20.7 12 Sudoeste 20 Sudoeste 0 -- -- 79
2020-06-26 08:00:00 20 14 Sudoeste 19 Oeste 0 -- -- 86
2020-06-26 07:00:00 20.3 12 Oeste 17 Oeste 0 -- -- 85
2020-06-26 06:00:00 20.5 5 Sudoeste 13 Sur 0 -- -- 81
2020-06-26 05:00:00 20.6 6 Sur 12 Sudeste 0 -- -- 81
2020-06-26 04:00:00 20.4 3 Sudeste 8 Sur 0 -- -- 81
2020-06-26 03:00:00 20.5 6 Sudeste 9 Sur 0 -- -- 80
2020-06-26 02:00:00 20.3 5 Este 9 Sudeste 0 -- -- 81
2020-06-26 01:00:00 19.5 2 Sur 7 Sur 0 -- -- 85
2020-06-26 00:00:00 19.2 0 Calma 4 Sur 0 -- -- 78
2020-06-25 23:00:00 20.4 0 Calma 12 Oeste 0 -- -- 76
2020-06-25 22:00:00 21.2 12 Oeste 25 Sudoeste 0 -- -- 74
2020-06-25 21:00:00 23.1 18 Oeste 25 Oeste 0 -- -- 65
2020-06-25 20:00:00 25.1 17 Sudoeste 30 Oeste 0 -- -- 59
2020-06-25 19:00:00 26.3 17 Sudoeste 28 Oeste 0 -- -- 57
2020-06-25 18:00:00 26.7 15 Sudoeste 33 Oeste 0 -- -- 56
2020-06-25 17:00:00 26.6 21 Sudoeste 42 Oeste 0 -- -- 59
2020-06-25 16:00:00 27.2 23 Sudoeste 35 Sudoeste 0 -- -- 55
2020-06-25 15:00:00 27.8 18 Sudoeste 29 Sudoeste 0 -- -- 52
2020-06-25 14:00:00 27.2 12 Sur 29 Sudoeste 0 -- -- 55
2020-06-25 13:00:00 26.7 14 Sur 26 Sur 0 -- -- 56
2020-06-25 12:00:00 24.7 13 Sur 26 Sur 0 -- -- 61
2020-06-25 11:00:00 23.7 12 Sudoeste 26 Sur 0 -- -- 66
2020-06-25 10:00:00 23.1 10 Sur 19 Sur 0 -- -- 70
2020-06-25 09:00:00 21.2 9 Sudoeste 18 Sur 0 -- -- 82
2020-06-25 08:00:00 20.2 8 Sur 18 Sudoeste 0 -- -- 86
2020-06-25 07:00:00 20 10 Sur 20 Sur 0 -- -- 85
2020-06-25 06:00:00 20 12 Sur 22 Sur 0 -- -- 86
2020-06-25 05:00:00 20.2 10 Sur 21 Sur 0 -- -- 81
2020-06-25 04:00:00 20.9 12 Sudeste 18 Sudeste 0 -- -- 67
2020-06-25 03:00:00 20.8 8 Sudeste 18 Sudeste 0 -- -- 64
2020-06-25 02:00:00 21.9 13 Sudeste 22 Sudeste 0 -- -- 58
2020-06-25 01:00:00 23.2 18 Sudeste 29 Sudeste 0 -- -- 50
2020-06-25 00:00:00 23.2 15 Sudeste 24 Sudeste 0 -- -- 50
2020-06-24 23:00:00 22.5 7 Sudeste 20 Este 0 -- -- 55
2020-06-24 22:00:00 24.8 18 Sudeste 26 Este 0 -- -- 47
2020-06-24 21:00:00 26.7 20 Sudeste 36 Sudeste 0 -- -- 42
2020-06-24 20:00:00 28.6 21 Sudeste 39 Este 0 -- -- 36
2020-06-24 19:00:00 29.7 30 Este 44 Este 0 -- -- 33
2020-06-24 18:00:00 30.3 30 Sudeste 43 Sudeste 0 -- -- 34
2020-06-24 17:00:00 30.7 26 Sudeste 40 Este 0 -- -- 36
2020-06-24 16:00:00 31.1 21 Sudeste 39 Sudeste 0 -- -- 37
2020-06-24 15:00:00 30.7 23 Sudeste 38 Sudeste 0 -- -- 39
2020-06-24 14:00:00 31.1 17 Sur 41 Sudeste 0 -- -- 42
2020-06-24 13:00:00 29.2 15 Sur 27 Sudoeste 0 -- -- 45
2020-06-24 12:00:00 29.3 13 Sur 35 Sudeste 0 -- -- 44
2020-06-24 11:00:00 27.9 23 Sudeste 30 Sudeste 0 -- -- 44
2020-06-24 10:00:00 26.5 18 Sudeste 39 Sudeste 0 -- -- 48
2020-06-24 09:00:00 24.9 24 Sudeste 35 Este 0 -- -- 50
2020-06-24 08:00:00 22.8 13 Sudeste 23 Sudeste 0 -- -- 56
2020-06-24 07:00:00 21.7 11 Sudeste 20 Sudeste 0 -- -- 60
2020-06-24 06:00:00 21.9 16 Sudeste 22 Este 0 -- -- 60
2020-06-24 05:00:00 22.1 18 Sudeste 28 Sudeste 0 -- -- 60
2020-06-24 04:00:00 22.2 14 Sudeste 23 Este 0 -- -- 58
2020-06-24 03:00:00 22.6 15 Este 28 Sudeste 0 -- -- 56
2020-06-24 02:00:00 23.5 23 Este 50 Este 0 -- -- 53
2020-06-24 01:00:00 24.1 33 Este 63 Sudeste 0 -- -- 50
2020-06-24 00:00:00 24.5 42 Sudeste 63 Sudeste 0 -- -- 49
2020-06-23 23:00:00 24.7 30 Sudeste 55 Sudeste 0 -- -- 48
2020-06-23 22:00:00 25.1 31 Sudeste 50 Sudeste 0 -- -- 47
2020-06-23 21:00:00 26.4 35 Sudeste 51 Este 0 -- -- 43
2020-06-23 20:00:00 28.4 41 Este 60 Este 0 -- -- 38
2020-06-23 19:00:00 30.1 28 Sudeste 68 Este 0 -- -- 34
2020-06-23 18:00:00 30.7 46 Este 67 Este 0 -- -- 33
2020-06-23 17:00:00 31.6 42 Este 75 Este 0 -- -- 32
2020-06-23 16:00:00 31.4 44 Este 69 Este 0 -- -- 33
2020-06-23 15:00:00 31.1 46 Sudeste 64 Sudeste 0 -- -- 33
2020-06-23 14:00:00 31 42 Este 72 Este 0 -- -- 33
2020-06-23 13:00:00 30.9 40 Este 59 Sudeste 0 -- -- 34
2020-06-23 12:00:00 29.8 37 Este 55 Este 0 -- -- 36
2020-06-23 11:00:00 28.9 35 Este 56 Este 0 -- -- 38
2020-06-23 10:00:00 27.8 22 Sudeste 52 Este 0 -- -- 40
2020-06-23 09:00:00 26.6 35 Este 66 Sudeste 0 -- -- 40
2020-06-23 08:00:00 25.3 35 Sudeste 67 Este 0 -- -- 40
2020-06-23 07:00:00 25.1 43 Este 73 Este 0 -- -- 39
2020-06-23 06:00:00 24.7 41 Este 66 Este 0 -- -- 41
2020-06-23 05:00:00 24.1 28 Sudeste 53 Este 0 -- -- 44
2020-06-23 04:00:00 23.7 26 Sudeste 58 Sudeste 0 -- -- 49
2020-06-23 03:00:00 24.2 34 Sudeste 52 Sudeste 0 -- -- 47
2020-06-23 02:00:00 24.2 30 Sudeste 57 Sudeste 0 -- -- 48
2020-06-23 01:00:00 24 33 Sudeste 49 Sudeste 0 -- -- 49
2020-06-23 00:00:00 24.1 31 Sudeste 45 Sudeste 0 -- -- 47
2020-06-22 23:00:00 23.9 23 Sudeste 48 Sudeste 0 -- -- 47
2020-06-22 22:00:00 24.8 31 Sudeste 50 Sudeste 0 -- -- 44
2020-06-22 21:00:00 26.5 31 Sudeste 53 Este 0 -- -- 38
2020-06-22 20:00:00 28.8 36 Sudeste 58 Este 0 -- -- 33
2020-06-22 19:00:00 30.6 40 Este 60 Sudeste 0 -- -- 28
2020-06-22 18:00:00 32.1 41 Este 75 Este 0 -- -- 26
2020-06-22 17:00:00 33.1 48 Este 74 Este 0 -- -- 22
2020-06-22 16:00:00 33.2 49 Este 78 Este 0 -- -- 21
2020-06-22 15:00:00 32.4 52 Este 72 Este 0 -- -- 23
2020-06-22 14:00:00 32.1 49 Este 73 Este 0 -- -- 25
2020-06-22 13:00:00 31 41 Sudeste 57 Sudeste 0 -- -- 29
2020-06-22 12:00:00 30.9 30 Sudeste 54 Sudeste 0 -- -- 30
2020-06-22 11:00:00 29.6 42 Este 56 Sudeste 0 -- -- 32
2020-06-22 10:00:00 28.3 32 Este 49 Este 0 -- -- 33
2020-06-22 09:00:00 25.4 9 Este 19 Sudeste 0 -- -- 41
2020-06-22 08:00:00 21.5 7 Sudeste 11 Sudeste 0 -- -- 50
2020-06-22 07:00:00 19.2 3 Noroeste 5 Oeste 0 -- -- 53
2020-06-22 06:00:00 18.9 4 Oeste 7 Noroeste 0 -- -- 55
2020-06-22 05:00:00 18.2 5 Oeste 7 Oeste 0 -- -- 58
2020-06-22 04:00:00 18.9 5 Oeste 6 Oeste 0 -- -- 56
2020-06-22 03:00:00 19.1 3 Noroeste 5 Noroeste 0 -- -- 56
2020-06-22 02:00:00 20 2 Noroeste 5 Noroeste 0 -- -- 50
2020-06-22 01:00:00 21.4 3 Oeste 7 Noroeste 0 -- -- 45
2020-06-22 00:00:00 22.2 6 Noroeste 11 Oeste 0 -- -- 42
2020-06-21 23:00:00 25 7 Noroeste 13 Oeste 0 -- -- 35
2020-06-21 22:00:00 27.6 8 Oeste 12 Oeste 0 -- -- 29
2020-06-21 21:00:00 32.2 6 Sudoeste 24 Oeste 0 -- -- 25
2020-06-21 20:00:00 33.6 17 Noroeste 32 Oeste 0 -- -- 25
2020-06-21 19:00:00 34.1 23 Oeste 40 Oeste 0 -- -- 26
2020-06-21 18:00:00 35 28 Oeste 37 Oeste 0 -- -- 26
2020-06-21 17:00:00 37.1 10 Nordeste 19 Nordeste 0 -- -- 18
2020-06-21 16:00:00 36.2 10 Oeste 21 Noroeste 0 -- -- 19
2020-06-21 15:00:00 35.6 8 Norte 28 Nordeste 0 -- -- 17
2020-06-21 14:00:00 34.6 11 Nordeste 21 Nordeste 0 -- -- 24
2020-06-21 13:00:00 32.5 7 Norte 15 Norte 0 -- -- 28
2020-06-21 12:00:00 30.5 7 Este 13 Nordeste 0 -- -- 32
2020-06-21 11:00:00 27.8 5 Nordeste 15 Nordeste 0 -- -- 39
2020-06-21 10:00:00 24.2 3 Noroeste 6 Nordeste 0 -- -- 48
2020-06-21 09:00:00 19.8 0 Calma 4 Este 0 -- -- 63
2020-06-21 08:00:00 15.5 0 Calma 3 Oeste 0 -- -- 75
2020-06-21 07:00:00 14.3 3 Oeste 5 Este 0 -- -- 78
2020-06-21 06:00:00 14.9 2 Noroeste 6 Noroeste 0 -- -- 77
2020-06-21 05:00:00 15.5 3 Oeste 6 Noroeste 0 -- -- 72
2020-06-21 04:00:00 16.4 4 Noroeste 6 Noroeste 0 -- -- 68
2020-06-21 03:00:00 16.8 0 Calma 4 Oeste 0 -- -- 69
2020-06-21 02:00:00 17 5 Oeste 6 Oeste 0 -- -- 69
2020-06-21 01:00:00 19.4 4 Noroeste 8 Oeste 0 -- -- 54
2020-06-21 00:00:00 20.9 3 Oeste 14 Oeste 0 -- -- 54
2020-06-20 23:00:00 22.1 8 Oeste 11 Oeste 0 -- -- 56
2020-06-20 22:00:00 24.8 3 Sur 15 Oeste 0 -- -- 46
2020-06-20 21:00:00 27.7 12 Oeste 28 Oeste 0 -- -- 36
2020-06-20 20:00:00 28.9 19 Oeste 29 Oeste 0 -- -- 35
2020-06-20 19:00:00 29.6 20 Oeste 34 Oeste 0 -- -- 39
2020-06-20 18:00:00 30.3 26 Oeste 35 Oeste 0 -- -- 38
2020-06-20 17:00:00 31.7 21 Oeste 30 Oeste 0 -- -- 36
2020-06-20 16:00:00 33.2 12 Sudoeste 24 Sudeste 0 -- -- 33
2020-06-20 15:00:00 32.8 6 Sur 26 Sudeste 0 -- -- 26
2020-06-20 14:00:00 31.7 14 Este 33 Este 0 -- -- 30
2020-06-20 13:00:00 30.4 11 Sudeste 25 Este 0 -- -- 35
2020-06-20 12:00:00 28.6 14 Sudeste 26 Este 0 -- -- 41
2020-06-20 11:00:00 26.3 12 Este 21 Este 0 -- -- 48
2020-06-20 10:00:00 22.9 6 Sudeste 10 Sudeste 0 -- -- 58
2020-06-20 09:00:00 18.1 0 Calma 4 Este 0 -- -- 69
2020-06-20 08:00:00 13.7 3 Oeste 4 Oeste 0 -- -- 82
2020-06-20 07:00:00 13.1 2 Noroeste 5 Este 0 -- -- 83
2020-06-20 06:00:00 14.3 4 Noroeste 5 Noroeste 0 -- -- 80
2020-06-20 05:00:00 14.5 3 Noroeste 7 Noroeste 0 -- -- 78
2020-06-20 04:00:00 14.8 5 Noroeste 6 Noroeste 0 -- -- 78
2020-06-20 03:00:00 15.4 5 Oeste 5 Oeste 0 -- -- 79
2020-06-20 02:00:00 17.3 2 Noroeste 6 Oeste 0 -- -- 76
2020-06-20 01:00:00 18.3 5 Noroeste 17 Noroeste 0 -- -- 76
2020-06-20 00:00:00 18.9 11 Noroeste 17 Oeste 0 -- -- 66
2020-06-19 23:00:00 19 3 Norte 17 Noroeste 0 -- -- 66
2020-06-19 22:00:00 20.5 13 Noroeste 23 Oeste 0 -- -- 58
2020-06-19 21:00:00 23.1 14 Noroeste 29 Oeste 0 -- -- 49
2020-06-19 20:00:00 24.6 17 Oeste 27 Oeste 0 -- -- 41
2020-06-19 19:00:00 25.4 18 Oeste 25 Oeste 0 -- -- 41
2020-06-19 18:00:00 25.4 17 Oeste 29 Oeste 0 -- -- 42
2020-06-19 17:00:00 25.1 20 Oeste 32 Sudoeste 0 -- -- 49
2020-06-19 16:00:00 25.1 17 Oeste 30 Oeste 0 -- -- 51
2020-06-19 15:00:00 24.8 15 Oeste 29 Sudoeste 0 -- -- 53
2020-06-19 14:00:00 24.7 12 Oeste 28 Sudoeste 0 -- -- 53
2020-06-19 13:00:00 23.9 13 Sudoeste 27 Sudoeste 0 -- -- 56
2020-06-19 12:00:00 22.9 12 Sudoeste 25 Sudoeste 0 -- -- 59
2020-06-19 11:00:00 21.2 12 Sudoeste 27 Sudoeste 0 -- -- 67
2020-06-19 10:00:00 20.4 10 Sur 26 Sur 0 -- -- 69
2020-06-19 09:00:00 19.1 6 Sudoeste 14 Sudoeste 0 -- -- 73
2020-06-19 08:00:00 17 2 Sur 13 Sur 0 -- -- 88
2020-06-19 07:00:00 16.3 7 Sur 13 Sur 0 -- -- 94
2020-06-19 06:00:00 15 6 Sudeste 10 Sudeste 0 -- -- 92
2020-06-19 05:00:00 15.5 6 Sudeste 8 Sudeste 0 -- -- 90
2020-06-19 04:00:00 15.4 3 Este 9 Nordeste 0 -- -- 87
2020-06-19 03:00:00 17.2 6 Sur 17 Sur 0 -- -- 85
2020-06-19 02:00:00 17 9 Sur 15 Sur 0 -- -- 85
2020-06-19 01:00:00 15.4 0 Calma 9 Este 0 -- -- 84
2020-06-19 00:00:00 16.4 3 Este 5 Este 0 -- -- 77
2020-06-18 23:00:00 18.1 0 Calma 12 Oeste 0 -- -- 73
2020-06-18 22:00:00 19.1 11 Oeste 20 Oeste 0 -- -- 66
2020-06-18 21:00:00 21.3 15 Oeste 27 Oeste 0 -- -- 56
2020-06-18 20:00:00 23.2 20 Oeste 31 Oeste 0 -- -- 48
2020-06-18 19:00:00 24.7 23 Oeste 34 Oeste 0 -- -- 43
2020-06-18 18:00:00 25.7 21 Oeste 38 Oeste 0 -- -- 29
2020-06-18 17:00:00 25.9 26 Oeste 41 Oeste 0 -- -- 34
2020-06-18 16:00:00 27.2 26 Oeste 38 Oeste 0 -- -- 33
2020-06-18 15:00:00 27.6 23 Oeste 33 Oeste 0 -- -- 35
2020-06-18 14:00:00 27.5 22 Oeste 31 Oeste 0 -- -- 38
2020-06-18 13:00:00 27.4 13 Noroeste 28 Noroeste 0 -- -- 38
2020-06-18 12:00:00 25.7 14 Oeste 21 Oeste 0 -- -- 39
2020-06-18 11:00:00 23.2 11 Oeste 19 Oeste 0 -- -- 50
2020-06-18 10:00:00 20.7 10 Oeste 15 Oeste 0 -- -- 62
2020-06-18 09:00:00 18.4 4 Noroeste 12 Noroeste 0 -- -- 73
2020-06-18 08:00:00 14.5 0 Calma 6 Este 0 -- -- 90
2020-06-18 07:00:00 12.9 0 Calma 4 Noroeste 0 -- -- 92
2020-06-18 06:00:00 13.6 0 Calma 7 Este 0 -- -- 91
2020-06-18 05:00:00 14 0 Calma 6 Oeste 0 -- -- 90
2020-06-18 04:00:00 14.7 4 Noroeste 6 Oeste 0 -- -- 91
2020-06-18 03:00:00 15.1 3 Noroeste 4 Noroeste 0 -- -- 88
2020-06-18 02:00:00 15.8 2 Noroeste 8 Noroeste 0 -- -- 86
2020-06-18 01:00:00 16.6 2 Oeste 4 Sudoeste 0 -- -- 81
2020-06-18 00:00:00 18.1 2 Norte 10 Oeste 0 -- -- 78
2020-06-17 23:00:00 19.1 3 Sudeste 22 Oeste 0 -- -- 76
2020-06-17 22:00:00 20.2 6 Sudoeste 35 Oeste 0 -- -- 68
2020-06-17 21:00:00 22.3 25 Oeste 36 Oeste 0 -- -- 58
2020-06-17 20:00:00 24.9 26 Oeste 36 Oeste 0 -- -- 49
2020-06-17 19:00:00 26.3 23 Oeste 33 Oeste 0 -- -- 40
2020-06-17 18:00:00 26.8 21 Oeste 32 Oeste 0 -- -- 38
2020-06-17 17:00:00 27.3 22 Oeste 35 Oeste 0 -- -- 36
2020-06-17 16:00:00 27.3 18 Noroeste 34 Oeste 0 -- -- 40
2020-06-17 15:00:00 27 19 Oeste 31 Noroeste 0 -- -- 41
2020-06-17 14:00:00 27.1 13 Noroeste 29 Noroeste 0 -- -- 42
2020-06-17 13:00:00 26.2 16 Oeste 27 Oeste 0 -- -- 43
2020-06-17 12:00:00 25 11 Oeste 21 Noroeste 0 -- -- 48
2020-06-17 11:00:00 23.2 5 Noroeste 13 Noroeste 0 -- -- 58
2020-06-17 10:00:00 21.4 3 Sudeste 10 Este 0 -- -- 73
2020-06-17 09:00:00 17.6 3 Este 5 Este 0 -- -- 93
2020-06-17 08:00:00 14.8 0 Calma 5 Noroeste 0 -- -- 96
2020-06-17 07:00:00 14.6 0 Calma 4 Oeste 0 -- -- 94
2020-06-17 06:00:00 14.6 3 Oeste 5 Nordeste 0 -- -- 93
2020-06-17 05:00:00 15.2 3 Noroeste 5 Noroeste 0 -- -- 92
2020-06-17 04:00:00 15.6 4 Oeste 6 Oeste 0 -- -- 92
2020-06-17 03:00:00 16.4 0 Calma 5 Este 0 -- -- 89
2020-06-17 02:00:00 17.4 4 Este 8 Este 0 -- -- 90
2020-06-17 01:00:00 18.6 0 Calma 10 Sudoeste 0 -- -- 87
2020-06-17 00:00:00 19.1 2 Sur 19 Oeste 0 -- -- 85
2020-06-16 23:00:00 19.6 12 Oeste 34 Oeste 0 -- -- 84
2020-06-16 22:00:00 20.2 27 Oeste 39 Oeste 0 -- -- 80
2020-06-16 21:00:00 21.7 26 Oeste 37 Oeste 0 -- -- 72
2020-06-16 20:00:00 23 27 Oeste 39 Oeste 0 -- -- 66
2020-06-16 19:00:00 23.6 31 Oeste 43 Oeste 0 -- -- 63
2020-06-16 18:00:00 24.4 32 Oeste 46 Oeste 0 -- -- 56
2020-06-16 17:00:00 25.1 28 Oeste 40 Oeste 0 -- -- 47
2020-06-16 16:00:00 25.2 25 Oeste 43 Oeste 0 -- -- 45
2020-06-16 15:00:00 24.3 28 Oeste 42 Oeste 0 -- -- 49
2020-06-16 14:00:00 23.6 31 Oeste 42 Oeste 0 -- -- 44
2020-06-16 13:00:00 23.9 24 Oeste 34 Oeste 0 -- -- 49
2020-06-16 12:00:00 24.4 21 Oeste 31 Oeste 0 -- -- 44
2020-06-16 11:00:00 23.1 15 Oeste 26 Oeste 0 -- -- 50
2020-06-16 10:00:00 21.2 13 Noroeste 22 Oeste 0 -- -- 57
2020-06-16 09:00:00 19.3 8 Noroeste 19 Noroeste 0 -- -- 63
2020-06-16 08:00:00 17.1 4 Oeste 10 Noroeste 0 -- -- 71
2020-06-16 07:00:00 16.2 3 Noroeste 12 Noroeste 0 -- -- 78
2020-06-16 06:00:00 15.3 5 Noroeste 15 Noroeste 0 -- -- 83
2020-06-16 05:00:00 15.4 2 Noroeste 6 Noroeste 0 -- -- 82
2020-06-16 04:00:00 16 0 Calma 6 Noroeste 0 -- -- 83
2020-06-16 03:00:00 15.6 4 Este 7 Este 0 -- -- 82
2020-06-16 02:00:00 15.5 5 Este 8 Este 0 -- -- 81
2020-06-16 01:00:00 16 3 Oeste 4 Oeste 0 -- -- 80
2020-06-16 00:00:00 16.9 0 Calma 7 Este 0 -- -- 76
2020-06-15 23:00:00 18.3 5 Sudeste 30 Oeste 0 -- -- 70
2020-06-15 22:00:00 19.3 23 Oeste 37 Oeste 0 -- -- 65
2020-06-15 21:00:00 20.5 27 Oeste 37 Oeste 0 -- -- 55
2020-06-15 20:00:00 23 23 Noroeste 34 Noroeste 0 -- -- 44
2020-06-15 19:00:00 24.5 21 Oeste 31 Oeste 0 -- -- 38
2020-06-15 18:00:00 25.4 18 Oeste 28 Oeste 0 -- -- 39
2020-06-15 17:00:00 25.9 16 Noroeste 30 Noroeste 0 -- -- 39
2020-06-15 16:00:00 25.6 14 Noroeste 32 Oeste 0 -- -- 41
2020-06-15 15:00:00 24.9 18 Oeste 32 Oeste 0 -- -- 42
2020-06-15 14:00:00 24.4 20 Oeste 35 Oeste 0 -- -- 44
2020-06-15 13:00:00 24.2 20 Oeste 34 Oeste 0 -- -- 45
2020-06-15 12:00:00 23.7 17 Oeste 26 Oeste 0 -- -- 49
2020-06-15 11:00:00 21.9 10 Oeste 18 Oeste 0 -- -- 54
2020-06-15 10:00:00 19.6 6 Sudoeste 12 Oeste 0 -- -- 62
2020-06-15 09:00:00 16.2 2 Este 5 Este 0 -- -- 80
2020-06-15 08:00:00 12.3 0 Calma 4 Oeste 0 -- -- 92
2020-06-15 07:00:00 10.9 0 Calma 4 Oeste 0 -- -- 91
2020-06-15 06:00:00 11.5 2 Noroeste 3 Oeste 0 -- -- 90
2020-06-15 05:00:00 12.7 2 Oeste 3 Oeste 0 -- -- 91
2020-06-15 04:00:00 12.6 2 Noroeste 5 Este 0 -- -- 87
2020-06-15 03:00:00 13.7 3 Este 5 Nordeste 0 -- -- 84
2020-06-15 02:00:00 14.1 3 Este 5 Este 0 -- -- 85
2020-06-15 01:00:00 14.5 3 Este 4 Nordeste 0 -- -- 82
2020-06-15 00:00:00 15.8 3 Este 4 Sudeste 0 -- -- 78